createdAt,value
2018-12-07T00:01:24.293Z,91.88
2018-12-07T00:02:21.584Z,91.88
2018-12-07T00:03:22.145Z,91.74
2018-12-07T00:04:21.597Z,91.22
2018-12-07T00:05:21.592Z,91.37
2018-12-07T00:06:21.596Z,91.74
2018-12-07T00:07:22.384Z,90.95
2018-12-07T00:08:21.609Z,90.91
2018-12-07T00:09:21.627Z,90.91
2018-12-07T00:10:21.486Z,90.91
2018-12-07T00:11:21.375Z,91.37
2018-12-07T00:12:21.991Z,91.33
2018-12-07T00:13:21.495Z,91.22
2018-12-07T00:14:21.402Z,91.12
2018-12-07T00:15:22.357Z,91.02
2018-12-07T00:18:05.921Z,90.91
2018-12-07T00:19:04.613Z,91.02
2018-12-07T00:20:04.649Z,90.61
2018-12-07T00:21:04.656Z,90.46
2018-12-07T00:22:04.626Z,90.40
2018-12-07T00:23:04.803Z,90.40
2018-12-07T00:24:04.615Z,89.75
2018-12-07T00:25:05.309Z,90.46
2018-12-07T00:26:05.567Z,90.26
2018-12-07T00:27:04.690Z,90.36
2018-12-07T00:28:04.615Z,90.36
2018-12-07T00:29:04.620Z,90.40
2018-12-07T00:30:04.519Z,90.46
2018-12-07T00:32:41.036Z,90.36
2018-12-07T00:33:39.644Z,90.16
2018-12-07T00:34:39.660Z,90.05
2018-12-07T00:35:40.929Z,89.64
2018-12-07T00:36:39.620Z,90.05
2018-12-07T00:37:39.492Z,89.75
2018-12-07T00:38:39.629Z,89.64
2018-12-07T00:39:39.607Z,90.05
2018-12-07T00:40:39.612Z,89.84
2018-12-07T00:41:39.662Z,89.84
2018-12-07T00:42:39.719Z,89.95
2018-12-07T00:43:39.540Z,89.50
2018-12-07T00:44:39.438Z,89.75
2018-12-07T00:45:39.630Z,89.60
2018-12-07T00:47:53.317Z,88.98
2018-12-07T00:48:51.658Z,88.98
2018-12-07T00:49:51.579Z,88.88
2018-12-07T00:50:52.171Z,88.98
2018-12-07T00:51:52.044Z,89.19
2018-12-07T00:52:51.796Z,88.98
2018-12-07T00:53:51.493Z,89.19
2018-12-07T00:54:51.666Z,89.09
2018-12-07T00:55:51.645Z,89.09
2018-12-07T00:56:51.506Z,89.19
2018-12-07T00:57:53.907Z,89.19
2018-12-07T00:58:51.690Z,88.78
2018-12-07T00:59:51.529Z,88.27
2018-12-07T01:00:51.484Z,88.68
2018-12-07T01:03:12.746Z,89.09
2018-12-07T01:04:13.588Z,88.88
2018-12-07T01:05:12.556Z,88.37
2018-12-07T01:06:12.704Z,88.78
2018-12-07T01:07:12.672Z,88.47
2018-12-07T01:08:12.742Z,88.43
2018-12-07T01:09:14.357Z,88.57
2018-12-07T01:10:12.677Z,88.57
2018-12-07T01:11:12.694Z,88.47
2018-12-07T01:12:12.539Z,88.53
2018-12-07T01:13:12.676Z,88.57
2018-12-07T01:14:12.728Z,88.33
2018-12-07T01:15:12.744Z,88.17
2018-12-07T01:16:12.450Z,88.23
2018-12-07T01:17:13.324Z,88.27
2018-12-07T01:19:59.343Z,88.33
2018-12-07T01:20:57.232Z,88.23
2018-12-07T01:21:57.119Z,87.92
2018-12-07T01:22:57.424Z,88.12
2018-12-07T01:23:58.425Z,88.17
2018-12-07T01:24:57.255Z,88.02
2018-12-07T01:25:57.357Z,87.82
2018-12-07T01:26:56.888Z,87.92
2018-12-07T01:27:57.578Z,88.12
2018-12-07T01:28:57.691Z,88.23
2018-12-07T01:29:58.525Z,88.12
2018-12-07T01:30:57.375Z,87.92
2018-12-07T01:31:59.614Z,88.02
2018-12-07T01:34:18.700Z,87.82
2018-12-07T01:35:17.691Z,87.82
2018-12-07T01:36:17.800Z,87.82
2018-12-07T01:37:19.354Z,87.41
2018-12-07T01:38:17.795Z,87.30
2018-12-07T01:39:17.857Z,87.47
2018-12-07T01:40:17.692Z,87.30
2018-12-07T01:41:18.360Z,87.26
2018-12-07T01:42:17.645Z,87.51
2018-12-07T01:43:17.772Z,87.61
2018-12-07T01:44:17.700Z,87.41
2018-12-07T01:45:17.703Z,87.41
2018-12-07T01:46:17.713Z,87.41
2018-12-07T01:47:17.714Z,87.47
2018-12-07T01:48:17.716Z,87.41
2018-12-07T01:50:29.322Z,87.61
2018-12-07T01:51:28.156Z,87.16
2018-12-07T01:52:28.191Z,87.88
2018-12-07T01:53:27.867Z,87.51
2018-12-07T01:54:28.184Z,88.08
2018-12-07T01:55:28.083Z,87.77
2018-12-07T01:56:28.847Z,88.53
2018-12-07T01:57:27.854Z,88.23
2018-12-07T01:58:28.165Z,88.49
2018-12-07T01:59:28.696Z,88.29
2018-12-07T02:00:28.258Z,88.64
2018-12-07T02:01:29.609Z,88.49
2018-12-07T02:02:28.058Z,88.70
2018-12-07T02:03:27.779Z,88.53
2018-12-07T02:05:45.914Z,88.53
2018-12-07T02:06:42.866Z,89.15
2018-12-07T02:07:38.897Z,88.90
2018-12-07T02:08:38.819Z,88.53
2018-12-07T02:09:38.751Z,88.70
2018-12-07T02:10:38.642Z,88.74
2018-12-07T02:11:39.755Z,88.53
2018-12-07T02:12:41.007Z,89.25
2018-12-07T02:13:39.587Z,88.80
2018-12-07T02:14:38.719Z,88.80
2018-12-07T02:15:38.723Z,89.21
2018-12-07T02:16:38.704Z,89.11
2018-12-07T02:17:38.621Z,89.51
2018-12-07T02:18:39.759Z,88.84
2018-12-07T02:19:38.732Z,88.59
2018-12-07T02:21:50.804Z,89.42
2018-12-07T02:22:50.109Z,89.42
2018-12-07T02:23:50.367Z,89.04
2018-12-07T02:24:50.222Z,88.94
2018-12-07T02:25:49.799Z,89.25
2018-12-07T02:26:49.839Z,88.80
2018-12-07T02:27:49.782Z,89.25
2018-12-07T02:28:49.764Z,89.04
2018-12-07T02:29:50.745Z,89.04
2018-12-07T02:30:49.749Z,89.25
2018-12-07T02:31:49.775Z,88.64
2018-12-07T02:32:49.760Z,89.21
2018-12-07T02:33:49.743Z,89.00
2018-12-07T02:34:49.755Z,88.90
2018-12-07T02:37:05.680Z,88.90
2018-12-07T02:38:01.449Z,89.00
2018-12-07T02:39:01.751Z,89.31
2018-12-07T02:40:01.451Z,89.15
2018-12-07T02:41:02.592Z,89.11
2018-12-07T02:42:01.362Z,88.59
2018-12-07T02:43:01.409Z,89.51
2018-12-07T02:44:01.756Z,89.31
2018-12-07T02:45:01.253Z,89.72
2018-12-07T02:46:01.415Z,89.72
2018-12-07T02:47:02.271Z,89.72
2018-12-07T02:48:01.479Z,89.51
2018-12-07T02:49:01.265Z,89.51
2018-12-07T02:50:01.006Z,90.23
2018-12-07T02:52:12.798Z,90.44
2018-12-07T02:53:11.770Z,90.89
2018-12-07T02:54:11.727Z,91.05
2018-12-07T02:55:11.820Z,91.20
2018-12-07T02:56:11.546Z,91.71
2018-12-07T02:57:11.767Z,91.40
2018-12-07T02:58:11.847Z,91.61
2018-12-07T02:59:11.570Z,91.91
2018-12-07T03:00:11.470Z,92.32
2018-12-07T03:01:11.686Z,92.53
2018-12-07T03:02:11.581Z,92.32
2018-12-07T03:03:11.483Z,92.74
2018-12-07T03:04:11.787Z,93.15
2018-12-07T03:05:11.799Z,93.04
2018-12-07T03:06:11.800Z,92.94
2018-12-07T03:08:21.909Z,94.17
2018-12-07T03:09:21.862Z,94.17
2018-12-07T03:10:21.791Z,93.86
2018-12-07T03:11:22.092Z,94.07
2018-12-07T03:12:21.681Z,94.27
2018-12-07T03:13:21.814Z,94.07
2018-12-07T03:14:22.878Z,94.37
2018-12-07T03:15:21.756Z,93.86
2018-12-07T03:16:21.800Z,94.17
2018-12-07T03:17:21.814Z,93.96
2018-12-07T03:18:21.919Z,94.07
2018-12-07T03:19:21.652Z,94.37
2018-12-07T03:20:21.842Z,94.17
2018-12-07T03:21:21.877Z,94.58
2018-12-07T03:23:34.408Z,94.37
2018-12-07T03:24:32.219Z,94.17
2018-12-07T03:25:32.821Z,94.27
2018-12-07T03:26:31.959Z,94.17
2018-12-07T03:27:33.856Z,94.78
2018-12-07T03:28:32.449Z,94.27
2018-12-07T03:29:32.693Z,94.68
2018-12-07T03:30:31.900Z,95.09
2018-12-07T03:31:32.085Z,94.07
2018-12-07T03:32:31.875Z,94.27
2018-12-07T03:33:31.872Z,94.58
2018-12-07T03:34:31.887Z,94.93
2018-12-07T03:35:32.814Z,94.78
2018-12-07T03:36:32.115Z,94.89
2018-12-07T03:37:31.826Z,94.99
2018-12-07T03:39:48.377Z,95.81
2018-12-07T03:40:43.257Z,95.61
2018-12-07T03:41:42.589Z,95.70
2018-12-07T03:42:42.811Z,96.01
2018-12-07T03:43:42.724Z,95.91
2018-12-07T03:44:42.614Z,96.01
2018-12-07T03:45:42.852Z,95.86
2018-12-07T03:46:42.833Z,95.95
2018-12-07T03:47:42.665Z,96.01
2018-12-07T03:48:42.555Z,96.06
2018-12-07T03:49:42.852Z,96.16
2018-12-07T03:50:42.983Z,96.22
2018-12-07T03:51:42.575Z,96.32
2018-12-07T03:52:42.832Z,96.32
2018-12-07T03:53:42.846Z,96.53
2018-12-07T03:55:54.880Z,96.16
2018-12-07T03:56:53.765Z,96.16
2018-12-07T03:57:53.254Z,96.83
2018-12-07T03:58:53.765Z,96.88
2018-12-07T03:59:53.469Z,96.06
2018-12-07T04:00:53.826Z,96.98
2018-12-07T04:01:53.866Z,96.12
2018-12-07T04:02:53.543Z,96.88
2018-12-07T04:03:53.631Z,96.47
2018-12-07T04:04:53.307Z,96.37
2018-12-07T04:05:53.517Z,96.37
2018-12-07T04:06:53.423Z,96.42
2018-12-07T04:07:53.894Z,96.42
2018-12-07T04:08:53.250Z,96.26
2018-12-07T04:11:27.025Z,96.32
2018-12-07T04:12:25.242Z,96.73
2018-12-07T04:13:26.729Z,96.37
2018-12-07T04:14:24.981Z,96.42
2018-12-07T04:15:24.984Z,96.32
2018-12-07T04:16:24.891Z,96.98
2018-12-07T04:17:24.893Z,96.32
2018-12-07T04:18:24.889Z,96.98
2018-12-07T04:19:25.766Z,96.53
2018-12-07T04:20:25.938Z,96.47
2018-12-07T04:21:24.859Z,96.63
2018-12-07T04:22:26.142Z,97.14
2018-12-07T04:23:24.879Z,97.14
2018-12-07T04:24:24.992Z,96.83
2018-12-07T04:26:38.468Z,96.83
2018-12-07T04:27:36.681Z,96.73
2018-12-07T04:28:36.985Z,97.14
2018-12-07T04:29:36.893Z,97.34
2018-12-07T04:30:36.720Z,97.19
2018-12-07T04:31:36.609Z,96.53
2018-12-07T04:32:36.867Z,96.63
2018-12-07T04:33:36.722Z,96.88
2018-12-07T04:34:36.659Z,97.04
2018-12-07T04:35:36.988Z,96.57
2018-12-07T04:36:36.775Z,97.14
2018-12-07T04:37:36.886Z,97.04
2018-12-07T04:38:36.919Z,96.53
2018-12-07T04:39:37.515Z,97.04
2018-12-07T04:40:36.695Z,97.04
2018-12-07T04:42:48.906Z,97.14
2018-12-07T04:43:47.989Z,97.14
2018-12-07T04:44:47.909Z,96.83
2018-12-07T04:45:48.028Z,97.14
2018-12-07T04:46:48.393Z,97.14
2018-12-07T04:47:47.892Z,97.24
2018-12-07T04:48:47.906Z,97.14
2018-12-07T04:49:47.814Z,97.45
2018-12-07T04:50:47.885Z,97.75
2018-12-07T04:51:48.849Z,98.07
2018-12-07T04:52:48.083Z,97.65
2018-12-07T04:53:47.887Z,97.96
2018-12-07T04:54:48.151Z,97.86
2018-12-07T04:55:47.894Z,97.75
2018-12-07T04:57:58.953Z,98.16
2018-12-07T04:58:59.913Z,97.96
2018-12-07T04:59:59.514Z,97.75
2018-12-07T05:00:58.775Z,97.75
2018-12-07T05:01:58.892Z,98.16
2018-12-07T05:02:59.865Z,98.07
2018-12-07T05:03:58.967Z,98.16
2018-12-07T05:04:58.690Z,98.47
2018-12-07T05:05:58.890Z,98.07
2018-12-07T05:07:02.258Z,98.27
2018-12-07T05:07:58.701Z,98.16
2018-12-07T05:08:58.604Z,98.16
2018-12-07T05:09:58.899Z,98.16
2018-12-07T05:10:58.795Z,98.07
2018-12-07T05:11:58.649Z,98.16
2018-12-07T05:14:13.923Z,98.16
2018-12-07T05:15:13.920Z,98.68
2018-12-07T05:16:13.933Z,98.37
2018-12-07T05:17:13.807Z,98.78
2018-12-07T05:18:13.706Z,98.78
2018-12-07T05:19:14.058Z,98.78
2018-12-07T05:20:14.083Z,98.99
2018-12-07T05:21:13.749Z,98.68
2018-12-07T05:22:13.915Z,98.68
2018-12-07T05:23:15.023Z,98.88
2018-12-07T05:24:13.763Z,98.74
2018-12-07T05:25:13.594Z,98.58
2018-12-07T05:26:13.825Z,98.88
2018-12-07T05:27:13.930Z,98.43
2018-12-07T05:29:26.534Z,98.16
2018-12-07T05:30:24.924Z,98.68
2018-12-07T05:31:24.935Z,98.16
2018-12-07T05:32:24.679Z,98.53
2018-12-07T05:33:24.893Z,98.47
2018-12-07T05:34:24.814Z,98.88
2018-12-07T05:35:26.359Z,98.16
2018-12-07T05:36:25.965Z,98.27
2018-12-07T05:37:26.072Z,98.22
2018-12-07T05:38:24.891Z,98.58
2018-12-07T05:39:28.314Z,98.58
2018-12-07T05:40:24.548Z,98.47
2018-12-07T05:41:24.951Z,98.83
2018-12-07T05:42:25.495Z,98.68
2018-12-07T05:43:31.804Z,98.88
2018-12-07T05:44:27.550Z,98.74
2018-12-07T05:46:38.981Z,98.78
2018-12-07T05:47:37.951Z,98.68
2018-12-07T05:48:37.970Z,98.74
2018-12-07T05:49:43.919Z,99.19
2018-12-07T05:50:37.711Z,98.78
2018-12-07T05:51:37.964Z,98.63
2018-12-07T05:52:40.012Z,98.58
2018-12-07T05:53:38.669Z,98.58
2018-12-07T05:54:37.961Z,98.88
2018-12-07T05:55:40.055Z,98.78
2018-12-07T05:56:37.761Z,98.83
2018-12-07T05:57:37.670Z,98.43
2018-12-07T05:58:38.236Z,98.63
2018-12-07T05:59:38.393Z,98.83
2018-12-07T06:00:37.694Z,98.33
2018-12-07T06:02:50.386Z,98.94
2018-12-07T06:03:49.816Z,98.43
2018-12-07T06:04:50.044Z,98.63
2018-12-07T06:05:50.011Z,98.78
2018-12-07T06:06:50.021Z,98.83
2018-12-07T06:07:53.765Z,98.83
2018-12-07T06:08:50.524Z,98.74
2018-12-07T06:09:49.524Z,98.63
2018-12-07T06:10:49.972Z,98.63
2018-12-07T06:11:49.557Z,98.58
2018-12-07T06:12:49.448Z,98.43
2018-12-07T06:13:49.714Z,98.74
2018-12-07T06:14:49.560Z,98.83
2018-12-07T06:15:49.984Z,98.53
2018-12-07T06:18:48.226Z,98.43
2018-12-07T06:19:47.861Z,98.53
2018-12-07T06:20:47.761Z,98.63
2018-12-07T06:21:56.260Z,98.63
2018-12-07T06:22:48.085Z,98.53
2018-12-07T06:23:47.994Z,98.74
2018-12-07T06:24:47.987Z,98.53
2018-12-07T06:25:47.892Z,98.63
2018-12-07T06:26:48.308Z,98.63
2018-12-07T06:27:47.705Z,99.15
2018-12-07T06:28:48.137Z,98.63
2018-12-07T06:29:48.037Z,98.63
2018-12-07T06:30:47.759Z,98.63
2018-12-07T06:31:48.003Z,98.63
2018-12-07T06:34:08.045Z,98.53
2018-12-07T06:35:06.727Z,98.58
2018-12-07T06:36:07.844Z,98.90
2018-12-07T06:37:07.032Z,98.79
2018-12-07T06:38:07.001Z,98.53
2018-12-07T06:39:06.678Z,98.53
2018-12-07T06:40:07.006Z,98.49
2018-12-07T06:41:06.447Z,98.69
2018-12-07T06:42:08.040Z,98.63
2018-12-07T06:43:06.867Z,98.90
2018-12-07T06:44:06.460Z,98.79
2018-12-07T06:45:06.381Z,99.20
2018-12-07T06:46:06.588Z,98.99
2018-12-07T06:47:06.513Z,98.28
2018-12-07T06:49:51.077Z,98.49
2018-12-07T06:50:50.748Z,98.38
2018-12-07T06:51:50.338Z,98.99
2018-12-07T06:52:52.225Z,98.79
2018-12-07T06:53:51.020Z,99.20
2018-12-07T06:54:50.455Z,98.90
2018-12-07T06:55:50.105Z,99.35
2018-12-07T06:56:50.119Z,98.58
2018-12-07T06:57:50.403Z,98.79
2018-12-07T06:58:52.034Z,98.90
2018-12-07T06:59:50.194Z,98.79
2018-12-07T07:00:50.068Z,98.90
2018-12-07T07:01:50.058Z,98.28
2018-12-07T07:02:51.084Z,98.18
2018-12-07T07:05:04.091Z,99.20
2018-12-07T07:06:04.018Z,98.49
2018-12-07T07:07:03.023Z,98.99
2018-12-07T07:08:02.947Z,98.99
2018-12-07T07:09:02.878Z,98.69
2018-12-07T07:10:03.022Z,98.90
2018-12-07T07:11:02.973Z,98.99
2018-12-07T07:12:04.035Z,98.49
2018-12-07T07:13:03.028Z,98.49
2018-12-07T07:14:03.068Z,98.69
2018-12-07T07:15:04.075Z,98.38
2018-12-07T07:16:03.547Z,98.58
2018-12-07T07:17:03.066Z,97.97
2018-12-07T07:18:03.073Z,98.03
2018-12-07T07:20:39.172Z,98.38
2018-12-07T07:21:38.902Z,97.92
2018-12-07T07:22:39.051Z,97.97
2018-12-07T07:23:39.034Z,98.03
2018-12-07T07:24:38.922Z,98.28
2018-12-07T07:25:39.745Z,97.56
2018-12-07T07:26:39.046Z,97.66
2018-12-07T07:27:39.074Z,97.72
2018-12-07T07:28:39.064Z,97.52
2018-12-07T07:29:39.103Z,97.92
2018-12-07T07:30:39.015Z,97.72
2018-12-07T07:31:43.617Z,97.52
2018-12-07T07:32:38.787Z,97.62
2018-12-07T07:33:38.985Z,97.62
2018-12-07T07:35:53.556Z,97.92
2018-12-07T07:36:53.054Z,97.00
2018-12-07T07:37:53.069Z,97.31
2018-12-07T07:38:52.950Z,97.31
2018-12-07T07:39:53.778Z,97.00
2018-12-07T07:40:53.223Z,96.91
2018-12-07T07:41:54.037Z,97.21
2018-12-07T07:42:52.886Z,97.00
2018-12-07T07:43:53.069Z,97.00
2018-12-07T07:44:53.602Z,96.59
2018-12-07T07:45:52.905Z,96.49
2018-12-07T07:46:52.807Z,96.14
2018-12-07T07:47:53.014Z,96.19
2018-12-07T07:48:53.591Z,96.66
2018-12-07T07:51:07.488Z,96.66
2018-12-07T07:52:06.793Z,96.34
2018-12-07T07:53:06.655Z,96.80
2018-12-07T07:54:06.588Z,96.75
2018-12-07T07:55:08.015Z,96.45
2018-12-07T07:56:06.707Z,96.45
2018-12-07T07:57:06.892Z,96.29
2018-12-07T07:58:06.504Z,96.66
2018-12-07T07:59:06.716Z,96.59
2018-12-07T08:00:06.615Z,97.00
2018-12-07T08:01:08.097Z,96.45
2018-12-07T08:02:07.229Z,96.96
2018-12-07T08:03:06.950Z,96.34
2018-12-07T08:04:07.799Z,96.66
2018-12-07T08:06:32.095Z,96.25
2018-12-07T08:07:31.321Z,96.19
2018-12-07T08:08:31.038Z,96.04
2018-12-07T08:09:31.226Z,95.94
2018-12-07T08:10:31.121Z,95.84
2018-12-07T08:11:34.090Z,95.84
2018-12-07T08:12:31.165Z,95.12
2018-12-07T08:13:31.246Z,95.84
2018-12-07T08:14:31.200Z,95.63
2018-12-07T08:15:31.374Z,95.53
2018-12-07T08:16:31.432Z,95.53
2018-12-07T08:17:31.428Z,95.53
2018-12-07T08:18:31.157Z,95.32
2018-12-07T08:19:30.939Z,95.43
2018-12-07T08:22:06.412Z,94.71
2018-12-07T08:23:06.188Z,94.87
2018-12-07T08:24:04.941Z,94.51
2018-12-07T08:25:05.223Z,94.71
2018-12-07T08:26:05.049Z,94.71
2018-12-07T08:27:05.056Z,94.36
2018-12-07T08:28:05.199Z,94.46
2018-12-07T08:29:06.648Z,94.26
2018-12-07T08:30:05.006Z,93.95
2018-12-07T08:31:04.898Z,94.15
2018-12-07T08:32:05.197Z,93.74
2018-12-07T08:33:05.026Z,94.15
2018-12-07T08:34:04.921Z,94.77
2018-12-07T08:35:06.046Z,93.74
2018-12-07T08:37:21.297Z,93.85
2018-12-07T08:38:19.165Z,94.21
2018-12-07T08:39:19.244Z,94.06
2018-12-07T08:40:21.190Z,94.26
2018-12-07T08:41:19.009Z,94.06
2018-12-07T08:42:18.909Z,93.50
2018-12-07T08:43:19.255Z,93.95
2018-12-07T08:44:19.015Z,94.15
2018-12-07T08:45:18.924Z,94.21
2018-12-07T08:46:20.696Z,94.01
2018-12-07T08:47:19.048Z,94.11
2018-12-07T08:48:18.951Z,93.80
2018-12-07T08:49:18.860Z,92.99
2018-12-07T08:50:19.220Z,93.09
2018-12-07T08:52:33.126Z,93.60
2018-12-07T08:53:31.247Z,93.40
2018-12-07T08:54:31.182Z,93.80
2018-12-07T08:55:31.193Z,92.78
2018-12-07T08:56:31.163Z,92.99
2018-12-07T08:57:30.988Z,92.68
2018-12-07T08:58:32.134Z,92.54
2018-12-07T08:59:31.168Z,92.33
2018-12-07T09:00:31.246Z,92.43
2018-12-07T09:01:30.928Z,91.86
2018-12-07T09:02:30.824Z,92.54
2018-12-07T09:03:31.082Z,92.13
2018-12-07T09:04:31.557Z,92.43
2018-12-07T09:05:30.924Z,92.43
2018-12-07T09:07:43.352Z,92.07
2018-12-07T09:08:42.869Z,92.13
2018-12-07T09:09:44.171Z,92.13
2018-12-07T09:10:42.692Z,91.72
2018-12-07T09:11:42.897Z,92.02
2018-12-07T09:12:42.785Z,92.54
2018-12-07T09:13:42.692Z,92.58
2018-12-07T09:14:42.623Z,92.74
2018-12-07T09:15:43.173Z,92.54
2018-12-07T09:16:42.716Z,93.25
2018-12-07T09:17:42.611Z,93.25
2018-12-07T09:18:42.517Z,92.84
2018-12-07T09:19:42.734Z,92.74
2018-12-07T09:20:43.081Z,92.74
2018-12-07T09:23:06.206Z,92.84
2018-12-07T09:24:06.052Z,92.94
2018-12-07T09:25:05.927Z,92.74
2018-12-07T09:26:05.810Z,93.05
2018-12-07T09:27:06.044Z,92.84
2018-12-07T09:28:05.929Z,92.43
2018-12-07T09:29:06.437Z,92.64
2018-12-07T09:30:05.738Z,92.54
2018-12-07T09:31:05.944Z,92.23
2018-12-07T09:32:05.888Z,91.92
2018-12-07T09:33:06.272Z,92.02
2018-12-07T09:34:05.672Z,91.82
2018-12-07T09:35:05.974Z,91.82
2018-12-07T09:36:05.792Z,91.52
2018-12-07T09:38:41.253Z,91.82
2018-12-07T09:39:39.908Z,91.72
2018-12-07T09:40:39.798Z,91.82
2018-12-07T09:41:39.716Z,92.43
2018-12-07T09:42:39.613Z,92.13
2018-12-07T09:43:46.656Z,91.92
2018-12-07T09:44:40.828Z,92.33
2018-12-07T09:45:40.863Z,91.92
2018-12-07T09:46:40.954Z,92.33
2018-12-07T09:47:40.955Z,91.92
2018-12-07T09:48:41.545Z,92.13
2018-12-07T09:49:43.349Z,92.13
2018-12-07T09:50:40.879Z,92.13
2018-12-07T09:51:40.907Z,92.23
2018-12-07T09:54:21.362Z,92.23
2018-12-07T09:55:19.992Z,92.13
2018-12-07T09:56:20.878Z,92.54
2018-12-07T09:57:19.754Z,92.54
2018-12-07T09:58:20.399Z,92.23
2018-12-07T09:59:20.894Z,92.33
2018-12-07T10:00:21.483Z,91.92
2018-12-07T10:01:19.720Z,91.82
2018-12-07T10:02:20.864Z,92.13
2018-12-07T10:03:19.884Z,91.82
2018-12-07T10:04:19.713Z,91.82
2018-12-07T10:05:19.951Z,92.13
2018-12-07T10:06:21.945Z,92.13
2018-12-07T10:07:19.737Z,91.92
2018-12-07T10:09:42.278Z,92.13
2018-12-07T10:10:41.230Z,92.23
2018-12-07T10:11:41.467Z,92.29
2018-12-07T10:12:42.906Z,92.49
2018-12-07T10:13:41.396Z,92.33
2018-12-07T10:14:41.238Z,91.98
2018-12-07T10:15:41.347Z,91.88
2018-12-07T10:16:41.385Z,91.37
2018-12-07T10:17:42.217Z,91.37
2018-12-07T10:18:41.432Z,91.16
2018-12-07T10:19:41.447Z,91.06
2018-12-07T10:20:41.336Z,91.06
2018-12-07T10:21:41.396Z,91.12
2018-12-07T10:24:08.272Z,90.51
2018-12-07T10:25:05.177Z,90.45
2018-12-07T10:26:05.032Z,90.51
2018-12-07T10:27:05.290Z,90.51
2018-12-07T10:28:05.155Z,90.51
2018-12-07T10:29:05.256Z,90.41
2018-12-07T10:30:06.185Z,90.00
2018-12-07T10:31:05.285Z,90.41
2018-12-07T10:32:06.001Z,89.28
2018-12-07T10:33:05.245Z,90.20
2018-12-07T10:34:05.191Z,90.00
2018-12-07T10:35:06.024Z,89.79
2018-12-07T10:36:05.017Z,89.96
2018-12-07T10:37:05.819Z,89.90
2018-12-07T10:38:05.190Z,89.75
2018-12-07T10:40:18.259Z,89.49
2018-12-07T10:41:18.132Z,89.25
2018-12-07T10:42:18.250Z,89.25
2018-12-07T10:43:17.250Z,89.34
2018-12-07T10:44:17.256Z,89.39
2018-12-07T10:45:17.047Z,88.84
2018-12-07T10:46:17.337Z,89.14
2018-12-07T10:47:17.194Z,89.04
2018-12-07T10:48:17.290Z,89.14
2018-12-07T10:49:16.962Z,89.34
2018-12-07T10:50:17.200Z,88.73
2018-12-07T10:51:17.197Z,88.93
2018-12-07T10:52:16.990Z,89.45
2018-12-07T10:53:17.197Z,89.04
2018-12-07T10:55:51.414Z,89.14
2018-12-07T10:56:51.429Z,89.04
2018-12-07T10:57:51.233Z,89.04
2018-12-07T10:58:50.822Z,88.73
2018-12-07T10:59:51.259Z,87.92
2018-12-07T11:00:50.944Z,88.63
2018-12-07T11:01:50.843Z,88.63
2018-12-07T11:02:50.752Z,88.73
2018-12-07T11:03:51.538Z,88.73
2018-12-07T11:04:50.870Z,88.84
2018-12-07T11:05:52.274Z,88.73
2018-12-07T11:06:51.275Z,88.22
2018-12-07T11:07:51.064Z,88.12
2018-12-07T11:10:14.319Z,88.22
2018-12-07T11:11:12.109Z,88.43
2018-12-07T11:12:12.272Z,88.12
2018-12-07T11:13:12.234Z,88.02
2018-12-07T11:14:12.288Z,88.12
2018-12-07T11:15:12.034Z,88.22
2018-12-07T11:16:13.180Z,87.82
2018-12-07T11:17:12.161Z,87.82
2018-12-07T11:18:12.084Z,87.51
2018-12-07T11:19:12.282Z,87.41
2018-12-07T11:20:12.187Z,87.41
2018-12-07T11:21:12.091Z,87.00
2018-12-07T11:22:13.232Z,86.45
2018-12-07T11:23:12.212Z,86.55
2018-12-07T11:24:12.113Z,87.06
2018-12-07T11:26:34.340Z,86.35
2018-12-07T11:27:34.365Z,86.04
2018-12-07T11:28:34.146Z,85.94
2018-12-07T11:29:34.092Z,85.74
2018-12-07T11:30:34.261Z,85.53
2018-12-07T11:31:34.187Z,85.49
2018-12-07T11:32:34.071Z,85.13
2018-12-07T11:33:34.647Z,85.13
2018-12-07T11:34:34.207Z,85.13
2018-12-07T11:35:34.102Z,85.13
2018-12-07T11:36:34.017Z,84.98
2018-12-07T11:37:34.314Z,85.28
2018-12-07T11:38:34.160Z,85.39
2018-12-07T11:40:47.368Z,85.19
2018-12-07T11:41:46.126Z,85.33
2018-12-07T11:42:46.037Z,85.43
2018-12-07T11:43:46.040Z,85.53
2018-12-07T11:44:47.529Z,85.74
2018-12-07T11:45:46.668Z,85.94
2018-12-07T11:46:46.511Z,85.94
2018-12-07T11:47:46.343Z,85.74
2018-12-07T11:48:46.092Z,85.94
2018-12-07T11:49:45.990Z,86.15
2018-12-07T11:50:46.315Z,86.39
2018-12-07T11:51:46.415Z,86.24
2018-12-07T11:52:46.366Z,86.55
2018-12-07T11:53:45.919Z,86.55
2018-12-07T11:54:45.816Z,86.45
2018-12-07T11:57:09.551Z,87.26
2018-12-07T11:58:09.856Z,87.16
2018-12-07T11:59:09.357Z,87.26
2018-12-07T12:00:09.315Z,86.96
2018-12-07T12:01:09.201Z,87.10
2018-12-07T12:02:09.430Z,86.65
2018-12-07T12:03:10.566Z,86.96
2018-12-07T12:04:09.445Z,87.16
2018-12-07T12:05:09.184Z,87.57
2018-12-07T12:06:09.087Z,87.47
2018-12-07T12:07:09.489Z,87.67
2018-12-07T12:08:09.510Z,87.37
2018-12-07T12:09:10.343Z,87.57
2018-12-07T12:11:34.714Z,87.82
2018-12-07T12:12:33.455Z,87.92
2018-12-07T12:13:33.664Z,88.12
2018-12-07T12:14:35.468Z,87.82
2018-12-07T12:15:33.356Z,87.82
2018-12-07T12:16:33.780Z,88.53
2018-12-07T12:17:34.619Z,88.63
2018-12-07T12:18:33.348Z,89.04
2018-12-07T12:19:33.339Z,89.45
2018-12-07T12:20:34.011Z,89.75
2018-12-07T12:21:33.413Z,90.47
2018-12-07T12:22:33.351Z,90.57
2018-12-07T12:23:33.244Z,90.36
2018-12-07T12:24:33.159Z,90.81
2018-12-07T12:25:34.399Z,90.31
2018-12-07T12:27:47.387Z,91.22
2018-12-07T12:28:45.642Z,90.92
2018-12-07T12:29:45.861Z,91.22
2018-12-07T12:30:45.770Z,91.12
2018-12-07T12:31:45.686Z,91.43
2018-12-07T12:32:45.927Z,91.53
2018-12-07T12:33:45.193Z,91.53
2018-12-07T12:34:45.478Z,91.02
2018-12-07T12:35:45.913Z,91.53
2018-12-07T12:36:45.397Z,91.83
2018-12-07T12:37:45.172Z,91.63
2018-12-07T12:38:45.371Z,91.94
2018-12-07T12:39:45.232Z,92.04
2018-12-07T12:40:45.188Z,92.24
2018-12-07T12:42:58.438Z,92.65
2018-12-07T12:43:58.364Z,91.83
2018-12-07T12:44:58.291Z,92.86
2018-12-07T12:45:58.177Z,92.55
2018-12-07T12:46:58.379Z,93.26
2018-12-07T12:47:58.370Z,93.37
2018-12-07T12:48:58.188Z,93.51
2018-12-07T12:49:58.389Z,93.31
2018-12-07T12:50:58.414Z,93.77
2018-12-07T12:51:58.229Z,94.23
2018-12-07T12:52:58.866Z,93.37
2018-12-07T12:53:59.384Z,93.82
2018-12-07T12:54:58.247Z,93.92
2018-12-07T12:55:58.553Z,94.53
2018-12-07T12:58:10.449Z,94.53
2018-12-07T12:59:09.231Z,93.51
2018-12-07T13:00:09.381Z,94.07
2018-12-07T13:01:09.345Z,93.92
2018-12-07T13:02:09.258Z,93.76
2018-12-07T13:03:09.394Z,94.17
2018-12-07T13:04:10.316Z,94.58
2018-12-07T13:05:09.407Z,95.39
2018-12-07T13:06:09.389Z,95.50
2018-12-07T13:07:09.455Z,95.29
2018-12-07T13:08:09.293Z,95.50
2018-12-07T13:09:09.504Z,95.80
2018-12-07T13:10:10.351Z,95.90
2018-12-07T13:11:09.552Z,96.11
2018-12-07T13:13:31.437Z,96.11
2018-12-07T13:14:32.437Z,96.21
2018-12-07T13:15:33.455Z,96.31
2018-12-07T13:16:30.647Z,96.62
2018-12-07T13:17:30.550Z,96.31
2018-12-07T13:18:31.342Z,96.21
2018-12-07T13:19:32.431Z,96.72
2018-12-07T13:20:30.506Z,96.42
2018-12-07T13:21:33.532Z,97.13
2018-12-07T13:22:30.654Z,97.24
2018-12-07T13:23:31.893Z,97.33
2018-12-07T13:24:32.875Z,96.72
2018-12-07T13:25:30.639Z,96.62
2018-12-07T13:26:30.630Z,97.13
2018-12-07T13:28:42.457Z,97.54
2018-12-07T13:29:41.600Z,97.49
2018-12-07T13:30:42.219Z,97.85
2018-12-07T13:31:43.049Z,97.54
2018-12-07T13:32:42.512Z,97.64
2018-12-07T13:33:41.421Z,97.64
2018-12-07T13:34:41.550Z,97.54
2018-12-07T13:35:41.748Z,97.74
2018-12-07T13:36:41.649Z,97.33
2018-12-07T13:37:42.130Z,97.85
2018-12-07T13:38:42.088Z,97.95
2018-12-07T13:39:42.831Z,98.05
2018-12-07T13:40:41.380Z,98.05
2018-12-07T13:41:41.430Z,98.05
2018-12-07T13:43:54.075Z,98.15
2018-12-07T13:44:55.068Z,98.25
2018-12-07T13:45:53.116Z,97.95
2018-12-07T13:46:52.718Z,97.74
2018-12-07T13:47:53.303Z,97.89
2018-12-07T13:48:54.289Z,97.99
2018-12-07T13:49:52.570Z,97.89
2018-12-07T13:50:53.460Z,97.85
2018-12-07T13:51:52.945Z,97.95
2018-12-07T13:52:52.641Z,98.25
2018-12-07T13:53:52.629Z,97.95
2018-12-07T13:54:52.861Z,97.85
2018-12-07T13:55:52.923Z,97.85
2018-12-07T13:56:53.018Z,97.69
2018-12-07T13:57:52.869Z,97.44
2018-12-07T14:00:05.604Z,97.44
2018-12-07T14:01:02.480Z,97.54
2018-12-07T14:02:06.346Z,97.85
2018-12-07T14:03:03.207Z,97.64
2018-12-07T14:04:02.592Z,97.44
2018-12-07T14:05:02.463Z,97.79